createdAt,value
2019-01-03T00:00:46.253Z,1.10
2019-01-03T00:03:16.743Z,1.20
2019-01-03T00:05:47.551Z,1.35
2019-01-03T00:08:18.246Z,1.33
2019-01-03T00:10:46.567Z,1.20
2019-01-03T00:13:17.562Z,1.47
2019-01-03T00:15:49.682Z,1.70
2019-01-03T00:18:20.779Z,1.50
2019-01-03T00:20:51.493Z,1.50
2019-01-03T00:23:21.896Z,2.83
2019-01-03T00:25:53.045Z,2.20
2019-01-03T00:28:25.166Z,2.17
2019-01-03T00:30:56.178Z,1.77
2019-01-03T00:33:28.132Z,1.90
2019-01-03T00:35:58.449Z,1.80
2019-01-03T00:38:30.192Z,2.10
2019-01-03T00:41:03.200Z,1.77
2019-01-03T00:43:34.034Z,2.25
2019-01-03T00:46:05.085Z,1.93
2019-01-03T00:48:37.230Z,2.17
2019-01-03T00:51:07.969Z,1.90
2019-01-03T00:53:38.261Z,2.10
2019-01-03T00:56:09.341Z,1.87
2019-01-03T00:58:39.944Z,1.87
2019-01-03T01:01:12.238Z,1.87
2019-01-03T01:03:43.347Z,1.90
2019-01-03T01:06:11.929Z,1.77
2019-01-03T01:08:44.062Z,2.00
2019-01-03T01:11:15.652Z,3.00
2019-01-03T01:13:46.297Z,1.80
2019-01-03T01:16:19.449Z,2.53
2019-01-03T01:18:50.493Z,2.00
2019-01-03T01:21:22.160Z,1.80
2019-01-03T01:23:53.274Z,2.20
2019-01-03T01:26:26.460Z,2.10
2019-01-03T01:28:57.433Z,1.67
2019-01-03T01:31:28.393Z,1.77
2019-01-03T01:33:59.364Z,1.40
2019-01-03T01:36:31.554Z,1.60
2019-01-03T01:39:01.851Z,1.83
2019-01-03T01:41:32.905Z,1.80
2019-01-03T01:44:04.029Z,1.83
2019-01-03T01:46:34.121Z,1.60
2019-01-03T01:49:05.234Z,1.80
2019-01-03T01:51:37.222Z,2.13
2019-01-03T01:54:07.519Z,2.13
2019-01-03T01:56:38.606Z,1.50
2019-01-03T01:59:07.721Z,1.70
2019-01-03T02:01:39.235Z,1.67
2019-01-03T02:04:07.626Z,1.77
2019-01-03T02:06:38.521Z,1.90
2019-01-03T02:09:10.704Z,1.50
2019-01-03T02:11:41.839Z,1.60
2019-01-03T02:14:11.468Z,1.83
2019-01-03T02:16:42.450Z,1.90
2019-01-03T02:19:13.117Z,1.83
2019-01-03T02:21:46.065Z,1.93
2019-01-03T02:24:18.174Z,1.60
2019-01-03T02:26:46.761Z,2.30
2019-01-03T02:29:17.935Z,2.13
2019-01-03T02:31:48.434Z,1.50
2019-01-03T02:34:19.174Z,2.30
2019-01-03T02:36:50.150Z,2.37
2019-01-03T02:39:21.137Z,2.43
2019-01-03T02:41:52.224Z,2.00
2019-01-03T02:44:24.241Z,2.30
2019-01-03T02:46:55.186Z,2.47
2019-01-03T02:49:26.404Z,2.10
2019-01-03T02:51:57.373Z,2.20
2019-01-03T02:54:28.351Z,1.80
2019-01-03T02:56:59.327Z,1.90
2019-01-03T02:59:30.449Z,2.27
2019-01-03T03:02:01.530Z,1.83
2019-01-03T03:04:34.458Z,2.40
2019-01-03T03:07:05.085Z,1.80
2019-01-03T03:09:35.801Z,1.60
2019-01-03T03:12:06.719Z,2.20
2019-01-03T03:14:37.690Z,2.10
2019-01-03T03:17:07.456Z,1.80
2019-01-03T03:19:39.331Z,1.80
2019-01-03T03:22:11.326Z,1.73
2019-01-03T03:24:42.415Z,1.90
2019-01-03T03:27:13.453Z,2.10
2019-01-03T03:29:44.397Z,2.37
2019-01-03T03:32:16.564Z,1.90
2019-01-03T03:34:48.773Z,2.60
2019-01-03T03:37:20.910Z,2.73
2019-01-03T03:39:51.488Z,1.87
2019-01-03T03:42:22.586Z,1.80
2019-01-03T03:44:52.841Z,2.77
2019-01-03T03:47:23.870Z,1.35
2019-01-03T03:49:54.964Z,1.97
2019-01-03T03:52:25.777Z,2.10
2019-01-03T03:54:57.909Z,2.60
2019-01-03T03:57:29.929Z,2.43
2019-01-03T04:00:00.899Z,1.90
2019-01-03T04:02:33.037Z,1.80
2019-01-03T04:05:03.832Z,1.90
2019-01-03T04:07:35.059Z,1.80
2019-01-03T04:12:44.089Z,1.98
2019-01-03T04:15:12.905Z,3.30
2019-01-03T04:17:44.980Z,1.90
2019-01-03T04:20:15.765Z,1.63
2019-01-03T04:22:47.884Z,1.87
2019-01-03T04:25:18.356Z,2.87
2019-01-03T04:27:50.398Z,2.40
2019-01-03T04:30:18.953Z,2.10
2019-01-03T04:32:50.068Z,1.90
2019-01-03T04:35:21.174Z,2.33
2019-01-03T04:37:50.791Z,2.47
2019-01-03T04:40:21.823Z,2.70
2019-01-03T04:42:53.698Z,2.30
2019-01-03T04:45:23.999Z,2.37
2019-01-03T04:47:55.629Z,2.30
2019-01-03T04:50:25.707Z,1.92
2019-01-03T04:52:56.854Z,2.23
2019-01-03T04:55:27.144Z,2.03
2019-01-03T04:57:59.110Z,2.12
2019-01-03T05:00:30.252Z,2.63
2019-01-03T05:05:40.642Z,2.27
2019-01-03T05:08:13.073Z,2.45
2019-01-03T05:10:44.020Z,1.83
2019-01-03T05:13:15.138Z,2.00
2019-01-03T05:15:45.876Z,2.87
2019-01-03T05:18:17.886Z,3.03
2019-01-03T05:20:48.065Z,2.40
2019-01-03T05:23:19.113Z,2.40
2019-01-03T05:25:50.233Z,2.10
2019-01-03T05:28:21.327Z,2.15
2019-01-03T05:30:52.442Z,2.23
2019-01-03T05:33:23.545Z,2.65
2019-01-03T05:35:55.673Z,2.37
2019-01-03T05:38:27.407Z,2.52
2019-01-03T05:40:58.487Z,2.30
2019-01-03T05:43:29.209Z,2.43
2019-01-03T05:46:01.861Z,2.30
2019-01-03T05:48:34.861Z,1.90
2019-01-03T05:51:05.904Z,2.77
2019-01-03T05:53:36.649Z,2.60
2019-01-03T05:56:06.944Z,2.30
2019-01-03T05:58:38.962Z,2.95
2019-01-03T06:01:11.095Z,3.20
2019-01-03T06:03:41.356Z,3.10
2019-01-03T06:06:12.497Z,3.07
2019-01-03T06:08:43.184Z,2.58
2019-01-03T06:11:14.239Z,3.00
2019-01-03T06:13:45.291Z,3.10
2019-01-03T06:16:16.421Z,2.90
2019-01-03T06:18:47.485Z,3.10
2019-01-03T06:21:18.454Z,3.73
2019-01-03T06:23:49.525Z,3.47
2019-01-03T06:26:18.111Z,3.40
2019-01-03T06:28:46.829Z,3.93
2019-01-03T06:31:19.015Z,3.57
2019-01-03T06:33:51.116Z,3.37
2019-01-03T06:36:23.234Z,4.80
2019-01-03T06:38:56.253Z,3.60
2019-01-03T06:41:27.898Z,3.37
2019-01-03T06:43:58.906Z,4.00
2019-01-03T06:46:28.144Z,2.85
2019-01-03T06:48:59.174Z,4.00
2019-01-03T06:51:30.056Z,3.90
2019-01-03T06:54:01.125Z,3.33
2019-01-03T06:56:33.279Z,3.83
2019-01-03T06:59:03.592Z,4.40
2019-01-03T07:01:34.733Z,4.20
2019-01-03T07:04:03.338Z,3.53
2019-01-03T07:06:35.445Z,3.73
2019-01-03T07:09:08.990Z,3.47
2019-01-03T07:11:40.862Z,4.27
2019-01-03T07:14:10.799Z,4.30
2019-01-03T07:16:42.840Z,4.10
2019-01-03T07:19:14.789Z,3.70
2019-01-03T07:21:43.573Z,3.40
2019-01-03T07:24:13.854Z,4.17
2019-01-03T07:26:45.413Z,4.00
2019-01-03T07:29:16.524Z,4.27
2019-01-03T07:31:48.556Z,3.10
2019-01-03T07:34:20.579Z,4.80
2019-01-03T07:36:51.173Z,4.58
2019-01-03T07:39:22.397Z,3.87
2019-01-03T07:41:55.501Z,3.70
2019-01-03T07:44:26.478Z,4.22
2019-01-03T07:46:58.579Z,3.13
2019-01-03T07:49:29.680Z,3.77
2019-01-03T07:52:00.439Z,4.30
2019-01-03T07:54:31.622Z,3.55
2019-01-03T07:57:02.768Z,3.42
2019-01-03T07:59:33.378Z,4.30
2019-01-03T08:02:05.535Z,3.77
2019-01-03T08:04:36.526Z,4.20
2019-01-03T08:07:07.235Z,3.60
2019-01-03T08:09:38.212Z,3.87
2019-01-03T08:12:10.226Z,3.87
2019-01-03T08:14:38.960Z,4.00
2019-01-03T08:17:08.380Z,3.70
2019-01-03T08:19:40.493Z,3.73
2019-01-03T08:22:12.686Z,3.50
2019-01-03T08:24:43.447Z,4.33
2019-01-03T08:27:14.522Z,4.33
2019-01-03T08:29:47.200Z,4.85
2019-01-03T08:32:18.159Z,3.50
2019-01-03T08:34:49.269Z,4.00
2019-01-03T08:37:21.342Z,3.87
2019-01-03T08:39:53.365Z,3.43
2019-01-03T08:42:24.384Z,4.30
2019-01-03T08:44:55.802Z,4.20
2019-01-03T08:47:26.167Z,5.33
2019-01-03T08:49:58.261Z,5.58
2019-01-03T08:52:27.307Z,5.37
2019-01-03T08:54:59.551Z,5.42
2019-01-03T08:57:31.734Z,6.80
2019-01-03T09:00:03.742Z,6.17
2019-01-03T09:02:35.313Z,6.50
2019-01-03T09:05:06.774Z,5.60
2019-01-03T09:07:38.737Z,6.70
2019-01-03T09:10:10.498Z,5.43
2019-01-03T09:12:41.475Z,5.30
2019-01-03T09:15:13.453Z,4.93
2019-01-03T09:17:44.080Z,5.73
2019-01-03T09:20:17.313Z,5.83
2019-01-03T09:22:48.329Z,5.17
2019-01-03T09:25:16.908Z,6.37
2019-01-03T09:27:48.896Z,7.17
2019-01-03T09:30:20.014Z,6.50
2019-01-03T09:32:51.905Z,6.55
2019-01-03T09:35:22.630Z,7.23
2019-01-03T09:37:53.337Z,6.60
2019-01-03T09:40:24.324Z,5.20
2019-01-03T09:42:54.615Z,6.50
2019-01-03T09:45:22.966Z,6.63
2019-01-03T09:47:51.300Z,7.15
2019-01-03T09:50:19.662Z,6.60
2019-01-03T09:52:48.035Z,6.60
2019-01-03T09:55:16.384Z,6.83
2019-01-03T09:57:44.730Z,8.20
2019-01-03T10:00:13.190Z,7.97
2019-01-03T10:02:41.701Z,6.50
2019-01-03T10:05:11.396Z,6.40
2019-01-03T10:07:39.718Z,7.23
2019-01-03T10:10:08.392Z,7.10
2019-01-03T10:12:36.698Z,5.93
2019-01-03T10:15:05.782Z,5.33
2019-01-03T10:17:34.107Z,6.40
2019-01-03T10:20:02.642Z,6.50
2019-01-03T10:22:31.062Z,5.87
2019-01-03T10:24:59.397Z,6.80
2019-01-03T10:27:27.789Z,6.10
2019-01-03T10:29:56.189Z,6.87
2019-01-03T10:32:24.583Z,6.30
2019-01-03T10:34:53.011Z,6.60
2019-01-03T10:37:21.389Z,7.53
2019-01-03T10:39:49.700Z,7.03
2019-01-03T10:42:18.151Z,6.43
2019-01-03T10:44:46.485Z,8.00
2019-01-03T10:47:14.830Z,8.03
2019-01-03T10:49:43.167Z,6.30
2019-01-03T10:52:11.564Z,7.93
2019-01-03T10:54:39.905Z,7.00
2019-01-03T10:57:08.687Z,8.03
2019-01-03T10:59:37.028Z,7.63
2019-01-03T11:02:06.013Z,7.35
2019-01-03T11:04:35.050Z,7.87
2019-01-03T11:07:03.781Z,9.13
2019-01-03T11:09:32.738Z,10.50
2019-01-03T11:12:01.615Z,11.40
2019-01-03T11:14:30.702Z,11.60
2019-01-03T11:16:59.852Z,8.73
2019-01-03T11:19:28.167Z,7.97
2019-01-03T11:22:00.823Z,10.63
2019-01-03T11:24:29.206Z,8.97
2019-01-03T11:26:57.573Z,11.73
2019-01-03T11:29:25.925Z,11.85
2019-01-03T11:31:54.284Z,12.30
2019-01-03T11:34:22.633Z,11.40
2019-01-03T11:36:50.963Z,12.33
2019-01-03T11:39:19.302Z,11.90
2019-01-03T11:41:47.637Z,12.10
2019-01-03T11:44:16.001Z,11.12
2019-01-03T11:46:44.315Z,11.30
2019-01-03T11:49:12.664Z,11.17
2019-01-03T11:51:41.007Z,10.70
2019-01-03T11:54:09.713Z,12.43
2019-01-03T11:56:38.111Z,10.53
2019-01-03T11:59:06.466Z,10.53
2019-01-03T12:01:34.878Z,11.43
2019-01-03T12:04:03.218Z,11.40
2019-01-03T12:06:31.565Z,10.73
2019-01-03T12:08:59.920Z,10.60
2019-01-03T12:11:28.274Z,11.30
2019-01-03T12:13:56.583Z,9.77
2019-01-03T12:16:24.949Z,10.93
2019-01-03T12:18:53.293Z,11.03
2019-01-03T12:21:21.667Z,10.13
2019-01-03T12:23:49.977Z,10.90
2019-01-03T12:26:18.358Z,10.70
2019-01-03T12:28:46.738Z,12.30
2019-01-03T12:31:16.108Z,11.53
2019-01-03T12:33:44.445Z,11.00
2019-01-03T12:36:12.797Z,11.10
2019-01-03T12:38:41.157Z,12.03
2019-01-03T12:41:09.923Z,10.30
2019-01-03T12:43:38.253Z,10.53
2019-01-03T12:46:06.686Z,10.82
2019-01-03T12:48:35.074Z,11.83
2019-01-03T12:51:03.490Z,11.60
2019-01-03T12:53:31.834Z,11.07
2019-01-03T12:56:00.195Z,11.30
2019-01-03T12:58:28.514Z,11.00
2019-01-03T13:00:56.906Z,12.80
2019-01-03T13:03:25.286Z,11.20
2019-01-03T13:05:53.636Z,12.00
2019-01-03T13:08:21.966Z,11.00
2019-01-03T13:10:50.295Z,9.93
2019-01-03T13:13:18.658Z,12.27
2019-01-03T13:15:47.017Z,12.37
2019-01-03T13:18:15.361Z,12.13
2019-01-03T13:20:43.698Z,12.33
2019-01-03T13:23:12.153Z,12.30
2019-01-03T13:25:40.517Z,12.53
2019-01-03T13:28:09.261Z,12.60
2019-01-03T13:30:37.806Z,12.05
2019-01-03T13:33:06.229Z,11.73
2019-01-03T13:35:34.554Z,12.10
2019-01-03T13:38:02.919Z,12.40
2019-01-03T13:40:31.248Z,13.00
2019-01-03T13:42:59.590Z,12.17
2019-01-03T13:45:27.930Z,12.30
2019-01-03T13:47:56.274Z,10.83
2019-01-03T13:50:24.606Z,11.77
2019-01-03T13:52:52.969Z,11.30
2019-01-03T13:55:21.290Z,12.05
2019-01-03T13:57:49.637Z,13.20
2019-01-03T14:00:17.965Z,11.75
2019-01-03T14:02:46.333Z,10.90
2019-01-03T14:05:14.692Z,13.40
2019-01-03T14:07:43.079Z,11.48
2019-01-03T14:10:11.750Z,10.13
2019-01-03T14:12:40.098Z,11.22
2019-01-03T14:15:09.027Z,11.37
2019-01-03T14:17:37.484Z,11.67
2019-01-03T14:20:10.583Z,10.77
2019-01-03T14:22:39.291Z,10.43
2019-01-03T14:25:07.673Z,10.20
2019-01-03T14:27:36.094Z,9.93
2019-01-03T14:30:06.138Z,10.50
2019-01-03T14:32:35.521Z,10.90
2019-01-03T14:35:04.237Z,10.70
2019-01-03T14:37:32.645Z,10.30
2019-01-03T14:40:00.996Z,10.33
2019-01-03T14:42:29.405Z,9.87
2019-01-03T14:44:57.744Z,9.40
2019-01-03T14:47:26.093Z,8.57
2019-01-03T14:49:54.446Z,10.23
2019-01-03T14:52:22.788Z,9.70
2019-01-03T14:54:51.122Z,9.13
2019-01-03T14:57:19.459Z,9.40
2019-01-03T14:59:47.818Z,11.13
2019-01-03T15:02:16.161Z,10.43
2019-01-03T15:04:44.517Z,10.10
2019-01-03T15:07:12.853Z,10.20
2019-01-03T15:09:41.206Z,9.40
2019-01-03T15:12:09.908Z,9.70
2019-01-03T15:14:38.338Z,9.60
2019-01-03T15:17:06.705Z,10.50
2019-01-03T15:19:35.085Z,9.90
2019-01-03T15:22:03.550Z,10.80
2019-01-03T15:24:33.031Z,11.80
2019-01-03T15:27:01.485Z,10.60
2019-01-03T15:29:29.837Z,14.87
2019-01-03T15:31:58.173Z,12.20
2019-01-03T15:34:26.590Z,12.17
2019-01-03T15:36:54.994Z,11.55
2019-01-03T15:39:23.323Z,12.10
2019-01-03T15:41:51.718Z,13.97
2019-01-03T15:47:22.224Z,13.27
2019-01-03T15:49:50.602Z,12.00
2019-01-03T15:52:19.041Z,12.40
2019-01-03T15:54:47.389Z,11.80
2019-01-03T15:57:15.734Z,11.73
2019-01-03T15:59:44.100Z,12.47
2019-01-03T16:02:12.682Z,11.10
2019-01-03T16:04:41.039Z,12.75
2019-01-03T16:07:09.410Z,11.97
2019-01-03T16:09:37.763Z,11.90
2019-01-03T16:12:06.155Z,13.43
2019-01-03T16:14:34.501Z,11.30
2019-01-03T16:17:03.598Z,12.03
2019-01-03T16:19:31.962Z,12.30
2019-01-03T16:22:00.297Z,12.30
2019-01-03T16:24:28.646Z,12.00
2019-01-03T16:26:57.003Z,13.27
2019-01-03T16:29:25.399Z,13.00
2019-01-03T16:31:53.741Z,13.10
2019-01-03T16:34:22.102Z,13.60
2019-01-03T16:36:50.415Z,14.40
2019-01-03T16:39:18.809Z,14.60
2019-01-03T16:41:47.110Z,14.23
2019-01-03T16:44:15.837Z,13.30
2019-01-03T16:46:44.207Z,14.78
2019-01-03T16:49:12.602Z,14.80
2019-01-03T16:51:41.086Z,14.30
2019-01-03T16:54:09.489Z,15.37
2019-01-03T16:56:37.877Z,13.45
2019-01-03T16:59:06.205Z,13.27
2019-01-03T17:01:34.580Z,13.97
2019-01-03T17:04:02.942Z,13.13
2019-01-03T17:06:31.330Z,14.40
2019-01-03T17:08:59.672Z,13.23
2019-01-03T17:11:28.041Z,12.50
2019-01-03T17:13:56.422Z,12.33
2019-01-03T17:16:25.202Z,11.18
2019-01-03T17:18:53.549Z,12.07
2019-01-03T17:21:21.904Z,11.90
2019-01-03T17:23:50.275Z,12.50
2019-01-03T17:26:18.628Z,11.57
2019-01-03T17:28:46.993Z,12.50
2019-01-03T17:31:15.539Z,13.57
2019-01-03T17:33:43.934Z,13.53
2019-01-03T17:36:12.359Z,11.67
2019-01-03T17:38:40.746Z,11.63
2019-01-03T17:41:09.118Z,12.10
2019-01-03T17:43:37.440Z,11.10
2019-01-03T17:46:05.832Z,11.20
2019-01-03T17:48:34.271Z,11.78
2019-01-03T17:51:02.794Z,11.50
2019-01-03T17:53:31.154Z,10.83
2019-01-03T17:55:59.530Z,11.80
2019-01-03T17:58:27.870Z,11.93
2019-01-03T18:00:56.222Z,11.70
2019-01-03T18:03:24.731Z,12.25
2019-01-03T18:05:53.215Z,12.60
2019-01-03T18:08:21.543Z,12.83
2019-01-03T18:10:49.936Z,13.23
2019-01-03T18:13:18.833Z,11.67
2019-01-03T18:15:47.213Z,13.00
2019-01-03T18:18:15.661Z,12.60
2019-01-03T18:20:44.198Z,13.20
2019-01-03T18:23:13.165Z,13.28
2019-01-03T18:25:41.589Z,13.87
2019-01-03T18:28:09.955Z,13.13
2019-01-03T18:30:38.285Z,12.43
2019-01-03T18:33:06.648Z,14.60
2019-01-03T18:35:34.992Z,15.00
2019-01-03T18:38:03.372Z,13.60
2019-01-03T18:40:31.725Z,13.43
2019-01-03T18:43:00.085Z,13.60
2019-01-03T18:45:28.409Z,13.40
2019-01-03T18:47:56.777Z,13.40
2019-01-03T18:50:25.150Z,14.77
2019-01-03T18:52:53.532Z,13.30
2019-01-03T18:55:22.020Z,14.33
2019-01-03T18:57:50.430Z,13.53
2019-01-03T19:00:19.011Z,13.57
2019-01-03T19:02:47.449Z,12.60
2019-01-03T19:05:16.488Z,12.67
2019-01-03T19:07:44.807Z,12.97
2019-01-03T19:10:13.657Z,13.57
2019-01-03T19:12:42.009Z,14.58
2019-01-03T19:15:11.394Z,13.98
2019-01-03T19:17:39.781Z,13.60
2019-01-03T19:20:09.627Z,14.40
2019-01-03T19:22:38.113Z,16.67
2019-01-03T19:25:09.820Z,15.77
2019-01-03T19:27:38.176Z,16.10
2019-01-03T19:30:09.751Z,15.87
2019-01-03T19:32:38.185Z,15.18
2019-01-03T19:35:08.785Z,13.90
2019-01-03T19:37:37.149Z,14.40
2019-01-03T19:40:09.201Z,14.87
2019-01-03T19:42:37.562Z,15.50
2019-01-03T19:45:09.058Z,14.85
2019-01-03T19:47:37.404Z,14.90
2019-01-03T19:50:09.573Z,14.80
2019-01-03T19:52:37.988Z,15.80
2019-01-03T19:55:07.750Z,13.87
2019-01-03T19:57:36.085Z,16.23
2019-01-03T20:00:07.849Z,14.57
2019-01-03T20:02:36.246Z,13.43
2019-01-03T20:05:05.307Z,13.70
2019-01-03T20:07:33.707Z,15.50
2019-01-03T20:10:02.052Z,13.40
2019-01-03T20:12:30.375Z,15.48
2019-01-03T20:14:58.840Z,15.13
2019-01-03T20:17:27.209Z,15.30
2019-01-03T20:19:55.575Z,16.97
2019-01-03T20:22:23.918Z,15.00
2019-01-03T20:24:52.281Z,15.93
2019-01-03T20:27:20.699Z,13.27
2019-01-03T20:29:49.129Z,15.17
2019-01-03T20:32:17.466Z,15.28
2019-01-03T20:34:45.837Z,15.43
2019-01-03T20:37:14.423Z,14.90
2019-01-03T20:39:43.099Z,14.00
2019-01-03T20:42:11.616Z,14.27
2019-01-03T20:44:39.973Z,13.17
2019-01-03T20:47:08.416Z,13.70
2019-01-03T20:49:36.744Z,14.27
2019-01-03T20:52:05.130Z,14.53
2019-01-03T20:54:33.704Z,14.77
2019-01-03T20:57:03.053Z,17.83
2019-01-03T20:59:32.032Z,16.40
2019-01-03T21:02:01.487Z,17.80
2019-01-03T21:04:30.155Z,17.07
2019-01-03T21:06:58.546Z,15.87
2019-01-03T21:09:26.888Z,15.13
2019-01-03T21:11:55.240Z,16.30
2019-01-03T21:14:23.634Z,16.20
2019-01-03T21:16:51.973Z,18.80
2019-01-03T21:19:20.401Z,16.37
2019-01-03T21:21:48.705Z,17.15
2019-01-03T21:24:17.205Z,17.57
2019-01-03T21:26:45.834Z,17.37
2019-01-03T21:29:14.195Z,15.13
2019-01-03T21:31:42.541Z,16.10
2019-01-03T21:34:11.075Z,14.80
2019-01-03T21:36:39.442Z,16.50
2019-01-03T21:39:07.969Z,14.93
2019-01-03T21:41:36.621Z,15.00
2019-01-03T21:44:04.954Z,15.45
2019-01-03T21:46:33.425Z,17.40
2019-01-03T21:49:01.977Z,15.30
2019-01-03T21:51:30.525Z,16.50
2019-01-03T21:53:58.848Z,15.90
2019-01-03T21:56:27.476Z,16.73
2019-01-03T21:58:55.849Z,16.17
2019-01-03T22:01:24.313Z,14.73
2019-01-03T22:03:52.652Z,14.97
2019-01-03T22:06:21.010Z,15.93
2019-01-03T22:08:49.335Z,16.57
2019-01-03T22:11:17.888Z,16.20
2019-01-03T22:13:46.211Z,17.37
2019-01-03T22:16:15.085Z,17.17
2019-01-03T22:18:43.469Z,20.03
2019-01-03T22:21:11.914Z,18.40
2019-01-03T22:23:40.238Z,17.83
2019-01-03T22:26:08.603Z,18.47
2019-01-03T22:28:37.141Z,17.37
2019-01-03T22:31:05.582Z,17.45
2019-01-03T22:33:35.759Z,16.48
2019-01-03T22:36:04.252Z,15.67
2019-01-03T22:38:32.598Z,16.35
2019-01-03T22:41:00.949Z,15.13
2019-01-03T22:43:30.500Z,17.07
2019-01-03T22:45:58.845Z,16.33
2019-01-03T22:48:27.198Z,16.00
2019-01-03T22:50:55.579Z,17.00
2019-01-03T22:53:24.002Z,17.97
2019-01-03T22:55:52.330Z,15.10
2019-01-03T22:58:21.513Z,17.80
2019-01-03T23:00:50.505Z,17.17
2019-01-03T23:03:18.853Z,17.20
2019-01-03T23:05:47.196Z,17.17
2019-01-03T23:08:15.880Z,17.80
2019-01-03T23:10:44.273Z,18.57
2019-01-03T23:13:12.999Z,17.13
2019-01-03T23:15:41.387Z,20.50
2019-01-03T23:18:09.716Z,21.40
2019-01-03T23:20:38.143Z,18.67
2019-01-03T23:23:06.489Z,16.90
2019-01-03T23:25:34.834Z,18.00
2019-01-03T23:28:03.191Z,16.27
2019-01-03T23:30:31.537Z,15.10
2019-01-03T23:32:59.881Z,16.65
2019-01-03T23:35:28.204Z,18.60
2019-01-03T23:37:56.577Z,16.27
2019-01-03T23:40:24.939Z,16.53
2019-01-03T23:42:53.496Z,15.60
2019-01-03T23:45:22.017Z,16.57
2019-01-03T23:47:51.589Z,16.37
2019-01-03T23:50:25.398Z,15.30
2019-01-03T23:52:53.841Z,17.47
2019-01-03T23:55:23.102Z,14.57
2019-01-03T23:57:51.497Z,16.30
